Report METAR

 

KSJC - San Jose, California, USA
Distance from station: NE 14km
Dati ricevuti: 28/11/2022 07:53
Few Clouds
Few Clouds
 Vento da ESE
Vento: ESE 6 km/h
Temperatura: 10°C
P.to Rugiada: 7°C
Umidità: 82%
Barometro: 1016.6 hPa
Nuvole: Few Clouds
Visibility: 16 km
Cloud details: Few Clouds 4267 m
2022/11/28 06:53 KSJC 280653Z 12003KT 10SM FEW140 10/07 A3002 RMK AO2 SLP166 T01000067
KNUQ - Moffett Nas/Mtn, California, USA
Distance from station: N 14km
Dati ricevuti: 28/11/2022 08:00
Sereno
Sereno
 Vento da calmo
Vento: Calma
Temperatura: 9°C
P.to Rugiada: 8°C
Umidità: 94%
Barometro: 1016.6 hPa
Nuvole: Sereno
Visibility: 16 km
2022/11/28 07:00 KNUQ 280700Z AUTO 00000KT 10SM CLR 09/08 A3002 RMK AO2
KPAO - Palo Alto, California, USA
Distance from station: NNO 23km
Dati ricevuti: 28/11/2022 05:47
DATI Obsoleti
Sereno
Sereno
 Vento da calmo
Vento: Calma
Temperatura: 9°C
P.to Rugiada: 8°C
Umidità: 94%
Barometro: 1017.3 hPa
Nuvole: Sereno
Visibility: 16 km
2022/11/28 04:47 KPAO 280447Z 00000KT 10SM SKC 09/08 A3004 RMK LAST
 
KRHV - San Jose/Reid, California, USA
Distance from station: ENE 19km
Dati ricevuti: 28/11/2022 06:52
DATI Obsoleti
Molto nuvoloso
Molto nuvoloso
 Vento da calmo
Vento: Calma
Temperatura: 9°C
P.to Rugiada: 3°C
Umidità: 66%
Barometro: 1017.3 hPa
Nuvole: Molto nuvoloso
Visibility: 16 km
Cloud details: Molto nuvoloso 4877 m
2022/11/28 05:52 KRHV 280552Z 00000KT 10SM BKN160 09/03 A3004 RMK LAST
KOAK - Oakland, California, USA
Distance from station: NNO 50km
Dati ricevuti: 28/11/2022 07:53
Mist, Parz. nuvoloso
Mist, Parz. nuvoloso
 Vento da NNE
Vento: NNE 11 km/h
Temperatura: 7°C
Temperatura Vento: 5°C
P.to Rugiada: 6°C
Umidità: 93%
Barometro: 1016.9 hPa
Summary: Mist
Nuvole: Parz. nuvoloso
Visibility: 10 km
Cloud details: Few Clouds 152 m
Parz. nuvoloso 7620 m
2022/11/28 06:53 KOAK 280653Z 03006KT 6SM BR FEW005 SCT250 07/06 A3003 RMK AO2 SLP169 T00720061
KSQL - San Carlos Airpo, California, USA
Distance from station: NO 34km
Dati ricevuti: 28/11/2022 08:15

 Vento da calmo
Vento: Calma
Temperatura: 8°C
P.to Rugiada: 6°C
Umidità: 87%
Barometro: 1016.9 hPa
Visibility: 16 km
2022/11/28 07:15 KSQL 280715Z AUTO 00000KT 10SM 08/06 A3003 RMK AO2
 
KSFO - San Francisco, California, USA
Distance from station: NO 49km
Dati ricevuti: 28/11/2022 07:56
Few Clouds
Few Clouds
 Vento da calmo
Vento: Calma
Temperatura: 10°C
P.to Rugiada: 7°C
Umidità: 82%
Barometro: 1016.6 hPa
Nuvole: Few Clouds
Visibility: 16 km
Cloud details: Few Clouds 244 m
2022/11/28 06:56 KSFO 280656Z 00000KT 10SM FEW008 10/07 A3002 RMK AO2 SLP165 T01000072
KE16 - San Martin, California, USA
Distance from station: ESE 43km
Dati ricevuti: 28/11/2022 08:15
Sereno
Sereno
 Vento da N
Vento: N 11 km/h
Temperatura: 7°C
Temperatura Vento: 5°C
P.to Rugiada: 3°C
Umidità: 76%
Barometro: 1016.9 hPa
Nuvole: Sereno
Visibility: 16 km
2022/11/28 07:15 KE16 280715Z AUTO 35006KT 10SM CLR 07/03 A3003 RMK AO2 PWINO PNO
KWVI - Watsonville, California, USA
Distance from station: SSE 44km
Dati ricevuti: 28/11/2022 07:53
Sereno
Sereno
 Vento da calmo
Vento: Calma
Temperatura: 6°C
P.to Rugiada: 4°C
Umidità: 87%
Barometro: 1016.9 hPa
Nuvole: Sereno
Visibility: 16 km
2022/11/28 06:53 KWVI 280653Z AUTO 00000KT 10SM CLR 06/04 A3003 RMK AO2 SLP168 T00610044
 
KHAF - Half Moon Bay, California, USA
Distance from station: ONO 50km
Dati ricevuti: 28/11/2022 08:15
Few Clouds
Few Clouds
 Vento da calmo
Vento: Calma
Temperatura: 5°C
P.to Rugiada: 5°C
Umidità: 100%
Barometro: 1017.3 hPa
Nuvole: Few Clouds
Visibility: 11 km
Cloud details: Few Clouds 274 m
2022/11/28 07:15 KHAF 280715Z AUTO 00000KT 7SM FEW009 05/05 A3004 RMK AO2
KHWD - Hayward, California, USA
Distance from station: N 44km
Dati ricevuti: 28/11/2022 07:54
Sereno
Sereno
 Vento da E
Vento: E 6 km/h
Temperatura: 8°C
P.to Rugiada: 6°C
Umidità: 87%
Barometro: 1016.6 hPa
Nuvole: Sereno
2022/11/28 06:54 KHWD 280654Z 09003KT CLR 08/06 A3002 RMK AO2 SLP176 T00830056 $
KLVK - Livermore, California, USA
Distance from station: NNE 51km
Dati ricevuti: 28/11/2022 07:53
Sereno
Sereno
 Vento da ENE
Vento: ENE 7 km/h
Temperatura: 6°C
Temperatura Vento: 4°C
P.to Rugiada: 1°C
Umidità: 71%
Barometro: 1016.3 hPa
Nuvole: Sereno
Visibility: 16 km
2022/11/28 06:53 KLVK 280653Z AUTO 07004KT 10SM CLR 06/01 A3001 RMK AO2 SLP160 T00560006 $